sensor_id;sensor_type;location;lat;lon;timestamp;temperature;humidity
14154;DHT22;7157;53.144;7.570;2022-12-18T00:05:20;-2.78;92.59
14154;DHT22;7157;53.144;7.570;2022-12-18T00:15:23;-2.80;91.49
14154;DHT22;7157;53.144;7.570;2022-12-18T00:25:27;-2.93;91.71
14154;DHT22;7157;53.144;7.570;2022-12-18T00:35:31;-3.13;91.95
14154;DHT22;7157;53.144;7.570;2022-12-18T00:45:35;-3.17;91.27
14154;DHT22;7157;53.144;7.570;2022-12-18T00:55:39;-3.37;91.51
14154;DHT22;7157;53.144;7.570;2022-12-18T01:05:43;-3.46;91.45
14154;DHT22;7157;53.144;7.570;2022-12-18T01:15:48;-3.56;91.20
14154;DHT22;7157;53.144;7.570;2022-12-18T01:25:52;-3.64;91.34
14154;DHT22;7157;53.144;7.570;2022-12-18T01:35:55;-3.78;91.13
14154;DHT22;7157;53.144;7.570;2022-12-18T01:46:00;-3.92;90.71
14154;DHT22;7157;53.144;7.570;2022-12-18T01:56:04;-4.00;90.80
14154;DHT22;7157;53.144;7.570;2022-12-18T02:06:12;-4.20;90.51
14154;DHT22;7157;53.144;7.570;2022-12-18T02:16:21;-4.31;90.21
14154;DHT22;7157;53.144;7.570;2022-12-18T02:26:30;-4.46;90.36
14154;DHT22;7157;53.144;7.570;2022-12-18T02:36:39;-4.46;89.57
14154;DHT22;7157;53.144;7.570;2022-12-18T02:46:46;-4.66;89.80
14154;DHT22;7157;53.144;7.570;2022-12-18T02:56:54;-4.76;89.64
14154;DHT22;7157;53.144;7.570;2022-12-18T03:07:03;-4.86;89.99
14154;DHT22;7157;53.144;7.570;2022-12-18T03:17:10;-4.87;89.65
14154;DHT22;7157;53.144;7.570;2022-12-18T03:27:19;-4.93;89.35
14154;DHT22;7157;53.144;7.570;2022-12-18T03:37:23;-5.04;89.08
14154;DHT22;7157;53.144;7.570;2022-12-18T03:47:30;-5.19;89.14
14154;DHT22;7157;53.144;7.570;2022-12-18T03:57:37;-5.24;88.88
14154;DHT22;7157;53.144;7.570;2022-12-18T04:07:42;-5.24;88.57
14154;DHT22;7157;53.144;7.570;2022-12-18T04:17:48;-5.30;88.35
14154;DHT22;7157;53.144;7.570;2022-12-18T04:27:52;-5.39;88.39
14154;DHT22;7157;53.144;7.570;2022-12-18T04:37:55;-5.49;87.93
14154;DHT22;7157;53.144;7.570;2022-12-18T04:48:00;-5.58;88.00
14154;DHT22;7157;53.144;7.570;2022-12-18T04:58:02;-5.57;88.00
14154;DHT22;7157;53.144;7.570;2022-12-18T05:08:07;-5.60;87.71
14154;DHT22;7157;53.144;7.570;2022-12-18T05:18:11;-5.68;87.66
14154;DHT22;7157;53.144;7.570;2022-12-18T05:28:15;-5.75;87.78
14154;DHT22;7157;53.144;7.570;2022-12-18T05:38:18;-5.87;87.57
14154;DHT22;7157;53.144;7.570;2022-12-18T05:48:22;-5.89;87.46
14154;DHT22;7157;53.144;7.570;2022-12-18T05:58:25;-5.90;87.27
14154;DHT22;7157;53.144;7.570;2022-12-18T06:08:30;-6.02;87.58
14154;DHT22;7157;53.144;7.570;2022-12-18T06:18:33;-6.00;87.39
14154;DHT22;7157;53.144;7.570;2022-12-18T06:28:39;-6.04;87.14
14154;DHT22;7157;53.144;7.570;2022-12-18T06:38:43;-6.11;87.32
14154;DHT22;7157;53.144;7.570;2022-12-18T06:48:48;-6.12;87.19
14154;DHT22;7157;53.144;7.570;2022-12-18T06:58:52;-6.19;87.32
14154;DHT22;7157;53.144;7.570;2022-12-18T07:08:56;-6.21;87.07
14154;DHT22;7157;53.144;7.570;2022-12-18T07:18:59;-6.28;87.24
14154;DHT22;7157;53.144;7.570;2022-12-18T07:29:03;-6.19;86.72
14154;DHT22;7157;53.144;7.570;2022-12-18T07:39:05;-6.13;86.57
14154;DHT22;7157;53.144;7.570;2022-12-18T07:49:10;-6.04;87.34
14154;DHT22;7157;53.144;7.570;2022-12-18T07:59:13;-5.83;87.35
14154;DHT22;7157;53.144;7.570;2022-12-18T08:09:17;-5.63;87.78
14154;DHT22;7157;53.144;7.570;2022-12-18T08:19:20;-5.30;87.59
14154;DHT22;7157;53.144;7.570;2022-12-18T08:29:24;-5.10;86.90
14154;DHT22;7157;53.144;7.570;2022-12-18T08:39:27;-4.75;85.74
14154;DHT22;7157;53.144;7.570;2022-12-18T08:49:31;-4.50;86.05
14154;DHT22;7157;53.144;7.570;2022-12-18T08:59:34;-4.20;85.64
14154;DHT22;7157;53.144;7.570;2022-12-18T09:09:38;-4.10;86.12
14154;DHT22;7157;53.144;7.570;2022-12-18T09:19:41;-3.90;86.35
14154;DHT22;7157;53.144;7.570;2022-12-18T09:29:46;-3.57;86.31
14154;DHT22;7157;53.144;7.570;2022-12-18T09:39:48;-3.27;85.10
14154;DHT22;7157;53.144;7.570;2022-12-18T09:49:56;-3.00;84.97
14154;DHT22;7157;53.144;7.570;2022-12-18T10:00:04;-2.87;84.59
14154;DHT22;7157;53.144;7.570;2022-12-18T10:10:19;-2.65;84.23
14154;DHT22;7157;53.144;7.570;2022-12-18T10:20:32;-2.54;83.67
14154;DHT22;7157;53.144;7.570;2022-12-18T10:30:39;-2.29;83.36
14154;DHT22;7157;53.144;7.570;2022-12-18T10:40:49;-1.86;82.49
14154;DHT22;7157;53.144;7.570;2022-12-18T10:50:55;-1.30;81.59
14154;DHT22;7157;53.144;7.570;2022-12-18T11:01:16;-1.28;81.46
14154;DHT22;7157;53.144;7.570;2022-12-18T11:11:21;-1.00;81.08
14154;DHT22;7157;53.144;7.570;2022-12-18T11:21:25;-0.61;81.40
14154;DHT22;7157;53.144;7.570;2022-12-18T11:31:29;-0.44;80.20
14154;DHT22;7157;53.144;7.570;2022-12-18T11:41:38;-0.53;79.99
14154;DHT22;7157;53.144;7.570;2022-12-18T11:52:10;-0.67;79.40
14154;DHT22;7157;53.144;7.570;2022-12-18T12:02:33;-0.71;80.04
14154;DHT22;7157;53.144;7.570;2022-12-18T12:12:52;-0.67;80.04
14154;DHT22;7157;53.144;7.570;2022-12-18T12:23:05;-0.74;80.44
14154;DHT22;7157;53.144;7.570;2022-12-18T12:33:26;-0.80;80.98
14154;DHT22;7157;53.144;7.570;2022-12-18T12:43:37;-0.71;80.65
14154;DHT22;7157;53.144;7.570;2022-12-18T12:53:52;-0.61;80.11
14154;DHT22;7157;53.144;7.570;2022-12-18T13:04:03;-0.65;80.24
14154;DHT22;7157;53.144;7.570;2022-12-18T13:14:23;-0.69;80.88
14154;DHT22;7157;53.144;7.570;2022-12-18T13:24:28;-0.69;80.73
14154;DHT22;7157;53.144;7.570;2022-12-18T13:34:35;-0.73;81.39
14154;DHT22;7157;53.144;7.570;2022-12-18T13:44:40;-0.76;81.04
14154;DHT22;7157;53.144;7.570;2022-12-18T13:54:47;-0.76;81.51
14154;DHT22;7157;53.144;7.570;2022-12-18T14:04:53;-0.66;81.23
14154;DHT22;7157;53.144;7.570;2022-12-18T14:14:58;-0.80;81.39
14154;DHT22;7157;53.144;7.570;2022-12-18T14:25:13;-0.96;81.50
14154;DHT22;7157;53.144;7.570;2022-12-18T14:35:18;-1.06;82.42
14154;DHT22;7157;53.144;7.570;2022-12-18T14:45:38;-1.17;82.96
14154;DHT22;7157;53.144;7.570;2022-12-18T14:55:46;-1.25;83.36
14154;DHT22;7157;53.144;7.570;2022-12-18T15:05:49;-1.38;83.67
14154;DHT22;7157;53.144;7.570;2022-12-18T15:15:54;-1.35;83.42
14154;DHT22;7157;53.144;7.570;2022-12-18T15:25:59;-1.21;82.64
14154;DHT22;7157;53.144;7.570;2022-12-18T15:36:08;-1.09;81.23
14154;DHT22;7157;53.144;7.570;2022-12-18T15:46:13;-0.64;78.92
14154;DHT22;7157;53.144;7.570;2022-12-18T15:56:18;-0.86;80.04
14154;DHT22;7157;53.144;7.570;2022-12-18T16:06:38;-0.75;79.53
14154;DHT22;7157;53.144;7.570;2022-12-18T16:17:03;-0.62;78.47
14154;DHT22;7157;53.144;7.570;2022-12-18T16:27:08;-0.50;77.69
14154;DHT22;7157;53.144;7.570;2022-12-18T16:37:13;-0.31;76.54
14154;DHT22;7157;53.144;7.570;2022-12-18T16:47:17;-0.31;76.05
14154;DHT22;7157;53.144;7.570;2022-12-18T16:57:22;-0.30;76.51
14154;DHT22;7157;53.144;7.570;2022-12-18T17:07:26;-0.21;75.63
14154;DHT22;7157;53.144;7.570;2022-12-18T17:17:31;-0.14;75.30
14154;DHT22;7157;53.144;7.570;2022-12-18T17:27:34;-0.07;74.68
14154;DHT22;7157;53.144;7.570;2022-12-18T17:37:38;-0.00;75.40
14154;DHT22;7157;53.144;7.570;2022-12-18T17:47:40;0.23;74.31
14154;DHT22;7157;53.144;7.570;2022-12-18T17:57:45;0.06;75.31
14154;DHT22;7157;53.144;7.570;2022-12-18T18:07:48;0.46;73.06
14154;DHT22;7157;53.144;7.570;2022-12-18T18:17:54;0.13;75.09
14154;DHT22;7157;53.144;7.570;2022-12-18T18:27:57;0.28;74.26
14154;DHT22;7157;53.144;7.570;2022-12-18T18:38:01;0.33;74.67
14154;DHT22;7157;53.144;7.570;2022-12-18T18:48:05;0.35;74.64
14154;DHT22;7157;53.144;7.570;2022-12-18T18:58:09;0.39;74.10
14154;DHT22;7157;53.144;7.570;2022-12-18T19:08:12;0.42;73.75
14154;DHT22;7157;53.144;7.570;2022-12-18T19:18:17;0.38;74.15
14154;DHT22;7157;53.144;7.570;2022-12-18T19:28:21;0.67;72.49
14154;DHT22;7157;53.144;7.570;2022-12-18T19:38:27;0.51;73.12
14154;DHT22;7157;53.144;7.570;2022-12-18T19:48:31;0.75;72.49
14154;DHT22;7157;53.144;7.570;2022-12-18T19:58:36;0.65;73.50
14154;DHT22;7157;53.144;7.570;2022-12-18T20:08:40;0.75;72.60
14154;DHT22;7157;53.144;7.570;2022-12-18T20:18:44;0.81;72.41
14154;DHT22;7157;53.144;7.570;2022-12-18T20:28:48;0.77;72.32
14154;DHT22;7157;53.144;7.570;2022-12-18T20:38:52;0.75;72.40
14154;DHT22;7157;53.144;7.570;2022-12-18T20:49:01;0.80;71.78
14154;DHT22;7157;53.144;7.570;2022-12-18T20:59:05;0.95;71.41
14154;DHT22;7157;53.144;7.570;2022-12-18T21:09:08;0.80;71.87
14154;DHT22;7157;53.144;7.570;2022-12-18T21:19:13;1.19;70.64
14154;DHT22;7157;53.144;7.570;2022-12-18T21:29:19;1.09;71.33
14154;DHT22;7157;53.144;7.570;2022-12-18T21:39:25;0.88;72.72
14154;DHT22;7157;53.144;7.570;2022-12-18T21:49:29;0.89;73.06
14154;DHT22;7157;53.144;7.570;2022-12-18T21:59:35;0.92;73.09
14154;DHT22;7157;53.144;7.570;2022-12-18T22:09:38;0.94;73.90
14154;DHT22;7157;53.144;7.570;2022-12-18T22:19:43;0.96;73.84
14154;DHT22;7157;53.144;7.570;2022-12-18T22:29:45;1.24;73.25
14154;DHT22;7157;53.144;7.570;2022-12-18T22:40:16;1.35;73.52
14154;DHT22;7157;53.144;7.570;2022-12-18T22:50:25;1.17;75.16
14154;DHT22;7157;53.144;7.570;2022-12-18T23:00:30;1.42;74.17
14154;DHT22;7157;53.144;7.570;2022-12-18T23:10:36;1.57;73.96
14154;DHT22;7157;53.144;7.570;2022-12-18T23:20:40;1.58;74.86
14154;DHT22;7157;53.144;7.570;2022-12-18T23:30:43;1.83;76.54
14154;DHT22;7157;53.144;7.570;2022-12-18T23:40:47;1.65;79.97
14154;DHT22;7157;53.144;7.570;2022-12-18T23:50:53;1.49;83.30
